PORT of FAABORG HAVN

Država: Denmark Država: Denmark (DK)
Latitude/Longitude: 55.094° / 10.235° Prikaži na mapi Prikaži na mapi
Vrijeme:  UTC +2
UN/LOCODE: DKFAA
Brod je Trenutno u Luci: 2

Posljednji dolasci i odlasci


Ime broda
Dolazak (UTC)
Dolazak (LT)
Isplovljenje (UTC)
Isplovljenje (LT)
Vessel Type: Putnički brodovi  SKJOLDNAES 2014-10-24 13:38:00 2014-10-24 15:38:00 2014-10-24 14:03:00 2014-10-24 16:03:00
Vessel Type: Putnički brodovi  SKJOLDNAES 2014-10-24 08:14:00 2014-10-24 10:14:00 2014-10-24 08:43:00 2014-10-24 10:43:00
Vessel Type: Putnički brodovi  SKJOLDNAES 2014-10-24 02:54:00 2014-10-24 04:54:00 2014-10-24 03:15:00 2014-10-24 05:15:00
Vessel Type: Putnički brodovi  FAABORG III 2014-10-23 17:36:00 2014-10-23 19:36:00 2014-10-23 17:56:00 2014-10-23 19:56:00
Vessel Type: Putnički brodovi  FAABORG III 2014-10-23 15:38:00 2014-10-23 17:38:00 2014-10-23 16:05:00 2014-10-23 18:05:00
Vessel Type: Putnički brodovi  FAABORG III 2014-10-23 13:47:00 2014-10-23 15:47:00 2014-10-23 14:11:00 2014-10-23 16:11:00
Vessel Type: Putnički brodovi  SKJOLDNAES 2014-10-23 13:39:00 2014-10-23 15:39:00 2014-10-23 14:04:00 2014-10-23 16:04:00
Vessel Type: Putnički brodovi  FAABORG III 2014-10-23 11:36:00 2014-10-23 13:36:00 2014-10-23 12:06:00 2014-10-23 14:06:00
Vessel Type: Putnički brodovi  FAABORG III 2014-10-23 09:43:00 2014-10-23 11:43:00 2014-10-23 10:06:00 2014-10-23 12:06:00
Vessel Type: Putnički brodovi  SKJOLDNAES 2014-10-23 08:09:00 2014-10-23 10:09:00 2014-10-23 08:44:00 2014-10-23 10:44:00

Očekivani dolasci


Ime broda
Scheduled Arrival (UTC)
Dolazak planiran (lokalno)
Približno vrijeme dolaska (UTC)
Približno vrijeme dolaska (lokalno)
Podaci nisu pronađeni

Wind Forecast


    
Vrijeme (UTC)
Brzina
Direction
Temperature
2014-10-24 21:00:00 20 knots 188° 13°C
2014-10-25 00:00:00 22 knots 190° 12°C
2014-10-25 03:00:00 21 knots 196° 12°C
2014-10-25 06:00:00 18 knots 202° 12°C
2014-10-25 09:00:00 16 knots 207° 12°C
2014-10-25 12:00:00 15 knots 216° 12°C
2014-10-25 15:00:00 13 knots 230° 13°C
2014-10-25 18:00:00 11 knots 238° 13°C
2014-10-25 21:00:00 13 knots 223° 12°C
2014-10-26 00:00:00 14 knots 217° 11°C
2014-10-26 03:00:00 16 knots 211° 11°C
2014-10-26 06:00:00 17 knots 208° 10°C
2014-10-26 09:00:00 18 knots 212° 10°C
2014-10-26 12:00:00 20 knots 216° 11°C
2014-10-26 15:00:00 20 knots 227° 13°C
2014-10-26 18:00:00 21 knots 219° 12°C